Time,TemperatureF,DewpointF,PressureIn,WindDirection,WindDirectionDegrees,WindSpeedMPH,WindSpeedGustMPH,Humidity,HourlyPrecipIn,Conditions,Clouds,dailyrainin,SoftwareType,DateUTC
2013-06-16 00:00:00,80.8,73.5,30.05,SSW,197,0.0,0.0,78,0.00,,---,0.00,VWS V13.01,2013-06-16 04:00:00,
2013-06-16 00:01:00,80.8,73.5,30.05,SSW,197,0.0,0.0,78,0.00,,---,0.00,VWS V13.01,2013-06-16 04:01:00,
2013-06-16 00:02:00,80.8,73.5,30.05,SSW,197,0.0,0.0,78,0.00,,---,0.00,VWS V13.01,2013-06-16 04:02:00,
2013-06-16 00:03:00,80.8,73.5,30.05,SSW,197,0.0,0.0,78,0.00,,---,0.00,VWS V13.01,2013-06-16 04:03:00,
2013-06-16 00:04:00,80.8,73.5,30.05,SSW,197,0.0,0.0,79,0.00,,---,0.00,VWS V13.01,2013-06-16 04:04:00,
2013-06-16 00:09:00,80.5,73.3,30.05,SSW,197,0.0,0.0,79,0.00,,---,0.00,VWS V13.01,2013-06-16 04:09:00,
2013-06-16 00:14:00,80.4,73.4,30.05,SSW,197,0.0,0.0,79,0.00,,---,0.00,VWS V13.01,2013-06-16 04:14:00,
2013-06-16 00:19:00,80.4,73.6,30.05,SSW,197,0.0,0.0,80,0.00,,---,0.00,VWS V13.01,2013-06-16 04:19:00,
2013-06-16 00:24:00,80.1,73.4,30.05,SSW,197,0.0,0.0,80,0.00,,---,0.00,VWS V13.01,2013-06-16 04:24:00,
2013-06-16 00:29:00,80.2,73.7,30.05,SSW,197,0.0,0.0,81,0.00,,---,0.00,VWS V13.01,2013-06-16 04:29:00,
2013-06-16 00:34:00,80.1,73.7,30.05,SSW,197,0.0,0.0,81,0.00,,---,0.00,VWS V13.01,2013-06-16 04:34:00,
2013-06-16 00:39:00,80.1,73.8,30.05,SSW,197,0.0,0.0,81,0.00,,---,0.00,VWS V13.01,2013-06-16 04:39:00,
2013-06-16 00:44:00,80.1,73.9,30.05,SSW,197,0.0,0.0,81,0.00,,---,0.00,VWS V13.01,2013-06-16 04:44:00,
2013-06-16 00:49:00,79.9,73.8,30.05,SSW,197,0.0,0.0,82,0.00,,---,0.00,VWS V13.01,2013-06-16 04:49:00,
2013-06-16 00:54:00,79.8,74.0,30.05,SSW,197,0.0,0.0,82,0.00,,---,0.00,VWS V13.01,2013-06-16 04:54:00,
2013-06-16 00:59:00,79.7,73.9,30.06,SSW,197,0.0,0.0,82,0.00,,---,0.00,VWS V13.01,2013-06-16 04:59:00,
2013-06-16 01:05:00,79.8,74.0,30.05,SSW,197,0.0,0.0,83,0.00,,---,0.00,VWS V13.01,2013-06-16 05:05:00,
2013-06-16 01:10:00,79.8,74.1,30.05,SSW,197,0.0,0.0,83,0.00,,---,0.00,VWS V13.01,2013-06-16 05:10:00,
2013-06-16 01:15:00,79.4,73.8,30.06,SSW,197,0.0,0.0,83,0.00,,---,0.00,VWS V13.01,2013-06-16 05:15:00,
2013-06-16 01:20:00,79.7,74.2,30.06,SSW,197,0.0,0.0,83,0.00,,---,0.00,VWS V13.01,2013-06-16 05:20:00,
2013-06-16 01:25:00,79.4,74.1,30.06,SSW,197,0.0,0.0,84,0.00,,---,0.00,VWS V13.01,2013-06-16 05:25:00,
2013-06-16 01:30:00,79.3,74.1,30.05,SSW,197,0.0,0.0,84,0.00,,---,0.00,VWS V13.01,2013-06-16 05:30:00,
2013-06-16 01:35:00,79.2,74.1,30.05,SSW,197,0.0,0.0,84,0.00,,---,0.00,VWS V13.01,2013-06-16 05:35:00,
2013-06-16 01:40:00,79.3,74.2,30.05,SSW,197,0.0,0.0,84,0.00,,---,0.00,VWS V13.01,2013-06-16 05:40:00,
2013-06-16 01:45:00,79.1,74.2,30.05,SSW,197,0.0,0.0,85,0.00,,---,0.00,VWS V13.01,2013-06-16 05:45:00,
2013-06-16 01:50:00,79.3,74.3,30.05,SSW,197,0.0,0.0,85,0.00,,---,0.00,VWS V13.01,2013-06-16 05:50:00,
2013-06-16 01:55:00,79.4,74.5,30.05,SSW,197,0.0,0.0,85,0.00,,---,0.00,VWS V13.01,2013-06-16 05:55:00,
2013-06-16 02:00:00,79.4,74.6,30.05,SSW,197,0.0,0.0,85,0.00,,---,0.00,VWS V13.01,2013-06-16 06:00:00,
2013-06-16 02:05:00,79.4,74.6,30.05,SSW,197,0.0,0.0,85,0.00,,---,0.00,VWS V13.01,2013-06-16 06:05:00,
2013-06-16 02:10:00,79.5,74.6,30.04,SSW,197,0.0,0.0,85,0.00,,---,0.00,VWS V13.01,2013-06-16 06:10:00,
2013-06-16 02:15:00,79.4,74.5,30.05,SSW,197,0.0,0.0,85,0.00,,---,0.00,VWS V13.01,2013-06-16 06:15:00,
2013-06-16 02:20:00,79.3,74.4,30.04,SSW,197,0.0,0.0,85,0.00,,---,0.00,VWS V13.01,2013-06-16 06:20:00,
2013-06-16 02:25:00,79.4,74.6,30.04,SSW,197,0.0,0.0,85,0.00,,---,0.00,VWS V13.01,2013-06-16 06:25:00,
2013-06-16 02:30:00,79.4,74.6,30.04,SSW,197,0.0,0.0,85,0.00,,---,0.00,VWS V13.01,2013-06-16 06:30:00,
2013-06-16 02:35:00,79.1,74.3,30.04,SSW,197,0.0,0.0,85,0.00,,---,0.00,VWS V13.01,2013-06-16 06:35:00,
2013-06-16 02:40:00,79.1,74.4,30.04,SSW,197,0.0,0.0,86,0.00,,---,0.00,VWS V13.01,2013-06-16 06:40:00,
2013-06-16 02:45:00,79.1,74.5,30.04,SSW,197,0.0,0.0,86,0.00,,---,0.00,VWS V13.01,2013-06-16 06:45:00,
2013-06-16 02:50:00,78.9,74.4,30.04,SSW,197,0.0,0.0,86,0.00,,---,0.00,VWS V13.01,2013-06-16 06:50:00,
2013-06-16 02:55:00,78.8,74.4,30.04,SSW,197,0.0,0.0,86,0.00,,---,0.00,VWS V13.01,2013-06-16 06:55:00,
2013-06-16 03:00:00,78.5,74.2,30.04,SSW,197,0.0,0.0,87,0.00,,---,0.00,VWS V13.01,2013-06-16 07:00:00,
2013-06-16 03:05:00,78.4,74.2,30.04,SSW,197,0.0,0.0,87,0.00,,---,0.00,VWS V13.01,2013-06-16 07:05:00,
2013-06-16 03:10:00,78.2,74.1,30.04,SSW,197,0.0,0.0,87,0.00,,---,0.00,VWS V13.01,2013-06-16 07:10:00,
2013-06-16 03:15:00,78.2,74.2,30.04,SSW,197,0.0,0.0,88,0.00,,---,0.00,VWS V13.01,2013-06-16 07:15:00,
2013-06-16 03:20:00,77.9,74.1,30.03,SSW,197,0.0,0.0,88,0.00,,---,0.00,VWS V13.01,2013-06-16 07:20:00,
2013-06-16 03:26:00,77.9,74.2,30.03,SSW,197,0.0,0.0,88,0.00,,---,0.00,VWS V13.01,2013-06-16 07:26:00,
2013-06-16 03:31:00,77.9,74.2,30.03,SSW,197,0.0,0.0,88,0.00,,---,0.00,VWS V13.01,2013-06-16 07:31:00,
2013-06-16 03:36:00,77.8,74.1,30.03,SSW,197,0.0,0.0,88,0.00,,---,0.00,VWS V13.01,2013-06-16 07:36:00,
2013-06-16 03:41:00,77.5,73.8,30.03,SSW,197,0.0,0.0,88,0.00,,---,0.00,VWS V13.01,2013-06-16 07:41:00,
2013-06-16 03:46:00,77.7,74.1,30.03,SSW,197,0.0,0.0,89,0.00,,---,0.00,VWS V13.01,2013-06-16 07:46:00,
2013-06-16 03:51:00,77.8,74.3,30.03,SSW,197,0.0,0.0,89,0.00,,---,0.00,VWS V13.01,2013-06-16 07:51:00,
2013-06-16 03:56:00,77.5,74.1,30.03,SSW,197,0.0,0.0,89,0.00,,---,0.00,VWS V13.01,2013-06-16 07:56:00,
2013-06-16 04:01:00,77.4,74.0,30.03,SSW,197,0.0,0.0,89,0.00,,---,0.00,VWS V13.01,2013-06-16 08:01:00,
2013-06-16 04:06:00,77.8,74.4,30.03,SSW,197,0.0,0.0,89,0.00,,---,0.00,VWS V13.01,2013-06-16 08:06:00,
2013-06-16 04:11:00,77.4,74.0,30.03,SSW,197,0.0,0.0,89,0.00,,---,0.00,VWS V13.01,2013-06-16 08:11:00,
2013-06-16 04:16:00,77.2,73.8,30.03,SSW,197,0.0,0.0,89,0.00,,---,0.00,VWS V13.01,2013-06-16 08:16:00,
2013-06-16 04:21:00,77.1,73.8,30.03,SSW,197,0.0,0.0,90,0.00,,---,0.00,VWS V13.01,2013-06-16 08:21:00,
2013-06-16 04:26:00,77.0,73.8,30.03,SSW,197,0.0,0.0,90,0.00,,---,0.00,VWS V13.01,2013-06-16 08:26:00,
2013-06-16 04:31:00,77.1,73.9,30.03,SSW,197,0.0,0.0,90,0.00,,---,0.00,VWS V13.01,2013-06-16 08:31:00,
2013-06-16 04:36:00,76.8,73.6,30.03,SSW,197,0.0,0.0,90,0.00,,---,0.00,VWS V13.01,2013-06-16 08:36:00,
2013-06-16 04:41:00,76.9,73.8,30.03,SSW,197,0.0,0.0,90,0.00,,---,0.00,VWS V13.01,2013-06-16 08:41:00,
2013-06-16 04:46:00,76.8,73.8,30.02,SSW,197,0.0,0.0,90,0.00,,---,0.00,VWS V13.01,2013-06-16 08:46:00,
2013-06-16 04:51:00,76.8,73.8,30.03,SSW,197,0.0,0.0,91,0.00,,---,0.00,VWS V13.01,2013-06-16 08:51:00,
2013-06-16 04:56:00,76.7,73.8,30.03,SSW,197,0.0,0.0,91,0.00,,---,0.00,VWS V13.01,2013-06-16 08:56:00,
2013-06-16 05:01:00,76.5,73.6,30.03,SSW,197,0.0,0.0,91,0.00,,---,0.00,VWS V13.01,2013-06-16 09:01:00,
2013-06-16 05:06:00,76.6,73.7,30.03,SSW,197,0.0,0.0,91,0.00,,---,0.00,VWS V13.01,2013-06-16 09:06:00,
2013-06-16 05:11:00,76.4,73.5,30.03,SSW,197,0.0,0.0,91,0.00,,---,0.00,VWS V13.01,2013-06-16 09:11:00,
2013-06-16 05:16:00,76.3,73.5,30.03,SSW,197,0.0,0.0,91,0.00,,---,0.00,VWS V13.01,2013-06-16 09:16:00,
2013-06-16 05:21:00,76.3,73.6,30.03,SSW,197,0.0,0.0,91,0.00,,---,0.00,VWS V13.01,2013-06-16 09:21:00,
2013-06-16 05:26:00,76.2,73.5,30.03,SSW,197,0.0,0.0,91,0.00,,---,0.00,VWS V13.01,2013-06-16 09:26:00,
2013-06-16 05:31:00,76.1,73.5,30.03,SSW,197,0.0,0.0,92,0.00,,---,0.00,VWS V13.01,2013-06-16 09:31:00,
2013-06-16 05:36:00,76.1,73.6,30.04,SSW,197,0.0,0.0,92,0.00,,---,0.00,VWS V13.01,2013-06-16 09:36:00,
2013-06-16 05:41:00,76.1,73.5,30.04,SSW,197,0.0,0.0,92,0.00,,---,0.00,VWS V13.01,2013-06-16 09:41:00,
2013-06-16 05:46:00,76.1,73.6,30.04,SSW,197,0.0,0.0,92,0.00,,---,0.00,VWS V13.01,2013-06-16 09:46:00,
2013-06-16 05:51:00,76.0,73.5,30.04,SSW,197,0.0,0.0,92,0.00,,---,0.00,VWS V13.01,2013-06-16 09:51:00,
2013-06-16 05:56:00,76.1,73.7,30.04,SSW,197,0.0,0.0,92,0.00,,---,0.00,VWS V13.01,2013-06-16 09:56:00,
2013-06-16 06:01:00,76.0,73.5,30.04,SSW,197,0.0,0.0,92,0.00,,---,0.00,VWS V13.01,2013-06-16 10:01:00,
2013-06-16 06:06:00,75.9,73.4,30.04,SSW,197,0.0,0.0,92,0.00,,---,0.00,VWS V13.01,2013-06-16 10:06:00,
2013-06-16 06:11:00,76.0,73.5,30.04,SSW,197,0.0,0.0,92,0.00,,---,0.00,VWS V13.01,2013-06-16 10:11:00,
2013-06-16 06:16:00,75.7,73.3,30.04,SSW,197,0.0,0.0,92,0.00,,---,0.00,VWS V13.01,2013-06-16 10:16:00,
2013-06-16 06:21:00,75.9,73.5,30.04,SSW,197,0.0,0.0,92,0.00,,---,0.00,VWS V13.01,2013-06-16 10:21:00,
2013-06-16 06:26:00,75.8,73.4,30.04,SSW,197,0.0,0.0,92,0.00,,---,0.00,VWS V13.01,2013-06-16 10:26:00,
2013-06-16 06:31:00,75.7,73.4,30.05,SSW,197,0.0,0.0,92,0.00,,---,0.00,VWS V13.01,2013-06-16 10:31:00,
2013-06-16 06:36:00,75.6,73.3,30.05,SSW,197,0.0,0.0,92,0.00,,---,0.00,VWS V13.01,2013-06-16 10:36:00,
2013-06-16 06:41:00,75.6,73.3,30.05,SSW,197,0.0,0.0,93,0.00,,---,0.00,VWS V13.01,2013-06-16 10:41:00,
2013-06-16 06:46:00,75.5,73.3,30.05,SSW,197,0.0,0.0,93,0.00,,---,0.00,VWS V13.01,2013-06-16 10:46:00,
2013-06-16 06:51:00,75.6,73.4,30.05,SSW,197,0.0,0.0,93,0.00,,---,0.00,VWS V13.01,2013-06-16 10:51:00,
2013-06-16 06:56:00,75.5,73.3,30.05,SSW,197,0.0,0.0,93,0.00,,---,0.00,VWS V13.01,2013-06-16 10:56:00,
2013-06-16 07:01:00,75.8,73.7,30.05,SSW,197,0.0,0.0,93,0.00,,---,0.00,VWS V13.01,2013-06-16 11:01:00,
2013-06-16 07:06:00,75.9,73.7,30.05,SSW,197,0.0,0.0,93,0.00,,---,0.00,VWS V13.01,2013-06-16 11:06:00,
2013-06-16 07:11:00,76.1,73.9,30.06,SSW,197,0.0,0.0,93,0.00,,---,0.00,VWS V13.01,2013-06-16 11:11:00,
2013-06-16 07:16:00,76.5,74.3,30.05,SSW,197,0.0,0.0,93,0.00,,---,0.00,VWS V13.01,2013-06-16 11:16:00,
2013-06-16 07:21:00,76.8,74.6,30.05,ENE,73,0.5,0.9,93,0.00,,---,0.00,VWS V13.01,2013-06-16 11:21:00,
2013-06-16 07:26:00,77.4,75.1,30.06,ENE,63,0.8,1.1,93,0.00,,---,0.00,VWS V13.01,2013-06-16 11:26:00,
2013-06-16 07:31:00,78.0,75.6,30.06,ENE,63,0.0,0.0,92,0.00,,---,0.00,VWS V13.01,2013-06-16 11:31:00,
2013-06-16 07:36:00,78.9,76.3,30.06,ENE,63,0.0,0.0,92,0.00,,---,0.00,VWS V13.01,2013-06-16 11:36:00,
2013-06-16 07:41:00,79.5,76.5,30.06,ENE,63,0.0,0.0,91,0.00,,---,0.00,VWS V13.01,2013-06-16 11:41:00,
2013-06-16 07:46:00,80.1,76.8,30.06,ENE,63,0.0,0.0,90,0.00,,---,0.00,VWS V13.01,2013-06-16 11:46:00,
2013-06-16 07:51:00,80.7,76.8,30.07,ENE,63,0.0,0.0,88,0.00,,---,0.00,VWS V13.01,2013-06-16 11:51:00,
2013-06-16 07:56:00,81.6,77.1,30.06,ENE,63,0.0,0.0,86,0.00,,---,0.00,VWS V13.01,2013-06-16 11:56:00,
2013-06-16 08:01:00,82.2,76.7,30.07,East,90,1.6,3.0,84,0.00,,---,0.00,VWS V13.01,2013-06-16 12:01:00,
2013-06-16 08:06:00,82.6,76.2,30.07,East,87,2.7,2.8,81,0.00,,---,0.00,VWS V13.01,2013-06-16 12:06:00,
2013-06-16 08:11:00,83.0,76.3,30.07,SE,131,0.7,2.9,80,0.00,,---,0.00,VWS V13.01,2013-06-16 12:11:00,
2013-06-16 08:16:00,83.1,75.3,30.07,East,79,2.4,5.1,77,0.00,,---,0.00,VWS V13.01,2013-06-16 12:16:00,
2013-06-16 08:21:00,83.3,75.8,30.07,East,86,2.6,3.4,78,0.00,,---,0.00,VWS V13.01,2013-06-16 12:21:00,
2013-06-16 08:26:00,83.4,75.1,30.07,ESE,122,3.5,6.6,76,0.00,,---,0.00,VWS V13.01,2013-06-16 12:26:00,
2013-06-16 08:31:00,83.7,75.2,30.08,SE,127,0.6,6.2,76,0.00,,---,0.00,VWS V13.01,2013-06-16 12:31:00,
2013-06-16 08:36:00,84.1,75.4,30.08,SE,129,3.9,4.4,75,0.00,,---,0.00,VWS V13.01,2013-06-16 12:36:00,
2013-06-16 08:41:00,84.1,75.3,30.08,SE,143,5.0,6.4,75,0.00,,---,0.00,VWS V13.01,2013-06-16 12:41:00,
2013-06-16 08:46:00,84.1,75.2,30.08,South,184,1.7,5.4,75,0.00,,---,0.00,VWS V13.01,2013-06-16 12:46:00,
2013-06-16 08:51:00,84.4,75.7,30.08,SE,128,0.0,3.0,75,0.00,,---,0.00,VWS V13.01,2013-06-16 12:51:00,
2013-06-16 08:56:00,84.7,75.9,30.08,ESE,118,0.0,0.4,75,0.00,,---,0.00,VWS V13.01,2013-06-16 12:56:00,
2013-06-16 09:01:00,85.4,76.1,30.08,SE,141,1.6,4.7,74,0.00,,---,0.00,VWS V13.01,2013-06-16 13:01:00,
2013-06-16 09:06:00,85.2,76.0,30.08,South,190,0.3,3.6,74,0.00,,---,0.00,VWS V13.01,2013-06-16 13:06:00,
2013-06-16 09:11:00,85.2,76.0,30.08,ESE,120,5.5,5.5,74,0.00,,---,0.00,VWS V13.01,2013-06-16 13:11:00,
2013-06-16 09:16:00,85.3,76.2,30.08,ESE,121,5.5,7.8,74,0.00,,---,0.00,VWS V13.01,2013-06-16 13:16:00,
2013-06-16 09:21:00,85.3,76.0,30.08,East,86,5.9,6.0,74,0.00,,---,0.00,VWS V13.01,2013-06-16 13:21:00,
2013-06-16 09:26:00,85.5,76.0,30.08,SE,132,3.4,6.0,73,0.00,,---,0.00,VWS V13.01,2013-06-16 13:26:00,
2013-06-16 09:31:00,85.5,76.1,30.08,NNW,345,1.8,6.1,74,0.00,,---,0.00,VWS V13.01,2013-06-16 13:31:00,
2013-06-16 09:36:00,85.3,75.2,30.08,ESE,110,5.2,6.6,72,0.00,,---,0.00,VWS V13.01,2013-06-16 13:36:00,
2013-06-16 09:41:00,85.7,75.5,30.08,SSE,160,2.9,7.1,72,0.00,,---,0.00,VWS V13.01,2013-06-16 13:41:00,
2013-06-16 09:46:00,86.0,75.6,30.08,SSW,212,0.5,5.7,71,0.00,,---,0.00,VWS V13.01,2013-06-16 13:46:00,
2013-06-16 09:51:00,86.4,75.0,30.08,ENE,59,1.6,5.0,69,0.00,,---,0.00,VWS V13.01,2013-06-16 13:51:00,
2013-06-16 09:56:00,86.5,74.3,30.08,SE,146,1.3,7.3,67,0.00,,---,0.00,VWS V13.01,2013-06-16 13:56:00,
2013-06-16 10:01:00,86.8,74.8,30.08,SE,124,2.5,2.7,68,0.00,,---,0.00,VWS V13.01,2013-06-16 14:01:00,
2013-06-16 10:06:00,86.9,75.3,30.08,ENE,70,5.9,5.9,68,0.00,,---,0.00,VWS V13.01,2013-06-16 14:06:00,
2013-06-16 10:11:00,86.6,74.7,30.08,ESE,122,5.3,7.6,68,0.00,,---,0.00,VWS V13.01,2013-06-16 14:11:00,
2013-06-16 10:16:00,86.5,75.3,30.08,SE,145,4.2,4.5,69,0.00,,---,0.00,VWS V13.01,2013-06-16 14:16:00,
2013-06-16 10:21:00,86.6,75.7,30.08,ESE,110,2.9,8.1,70,0.00,,---,0.00,VWS V13.01,2013-06-16 14:21:00,
2013-06-16 10:26:00,87.2,75.5,30.08,ESE,121,6.3,7.1,68,0.00,,---,0.00,VWS V13.01,2013-06-16 14:26:00,
2013-06-16 10:31:00,87.1,75.7,30.08,SSW,202,3.6,4.0,69,0.00,,---,0.00,VWS V13.01,2013-06-16 14:31:00,
2013-06-16 10:36:00,87.0,76.2,30.08,East,94,4.7,8.6,70,0.00,,---,0.00,VWS V13.01,2013-06-16 14:36:00,
2013-06-16 10:41:00,87.5,76.3,30.08,ESE,104,1.6,3.8,70,0.00,,---,0.00,VWS V13.01,2013-06-16 14:41:00,
2013-06-16 10:46:00,87.5,76.2,30.08,ESE,103,5.5,9.6,69,0.00,,---,0.00,VWS V13.01,2013-06-16 14:46:00,
2013-06-16 10:51:00,87.0,76.6,30.08,ESE,112,4.7,5.8,71,0.00,,---,0.00,VWS V13.01,2013-06-16 14:51:00,
2013-06-16 10:56:00,86.5,76.6,30.08,SSE,162,6.3,6.3,72,0.00,,---,0.00,VWS V13.01,2013-06-16 14:56:00,
2013-06-16 11:01:00,86.2,76.6,30.08,SE,134,2.9,8.8,73,0.00,,---,0.00,VWS V13.01,2013-06-16 15:01:00,
2013-06-16 11:06:00,86.2,76.8,30.08,SSE,156,5.8,7.0,74,0.00,,---,0.00,VWS V13.01,2013-06-16 15:06:00,
2013-06-16 11:11:00,85.9,75.8,30.08,East,83,5.5,8.9,72,0.00,,---,0.00,VWS V13.01,2013-06-16 15:11:00,
2013-06-16 11:16:00,85.5,76.0,30.08,SE,127,8.6,13.5,73,0.00,,---,0.00,VWS V13.01,2013-06-16 15:16:00,
2013-06-16 11:22:00,86.3,76.3,30.08,SE,131,1.6,8.6,72,0.00,,---,0.00,VWS V13.01,2013-06-16 15:22:00,
2013-06-16 11:27:00,86.7,75.4,30.08,SE,127,8.2,9.8,69,0.00,,---,0.00,VWS V13.01,2013-06-16 15:27:00,
2013-06-16 11:32:00,87.0,76.0,30.08,SSE,159,6.5,10.6,70,0.00,,---,0.00,VWS V13.01,2013-06-16 15:32:00,
2013-06-16 11:37:00,87.0,76.3,30.08,SE,136,7.9,8.0,71,0.00,,---,0.00,VWS V13.01,2013-06-16 15:37:00,
2013-06-16 11:43:00,87.0,76.1,30.08,SE,138,5.0,10.6,70,0.00,,---,0.00,VWS V13.01,2013-06-16 15:43:00,
2013-06-16 11:48:00,87.3,75.7,30.08,ESE,117,4.2,6.9,68,0.00,,---,0.00,VWS V13.01,2013-06-16 15:48:00,
2013-06-16 11:53:00,86.8,75.5,30.08,SE,129,6.2,6.7,69,0.00,,---,0.00,VWS V13.01,2013-06-16 15:53:00,
2013-06-16 11:58:00,87.3,75.7,30.08,SE,135,4.6,7.4,69,0.00,,---,0.00,VWS V13.01,2013-06-16 15:58:00,
2013-06-16 12:03:00,87.1,75.5,30.08,ESE,104,5.5,8.7,69,0.00,,---,0.00,VWS V13.01,2013-06-16 16:03:00,
2013-06-16 12:08:00,86.5,75.5,30.07,SE,127,6.7,12.4,70,0.00,,---,0.00,VWS V13.01,2013-06-16 16:08:00,
2013-06-16 12:13:00,86.6,76.0,30.07,ESE,118,8.6,13.0,71,0.00,,---,0.00,VWS V13.01,2013-06-16 16:13:00,
2013-06-16 12:18:00,86.5,75.7,30.07,ESE,112,9.6,10.6,70,0.00,,---,0.00,VWS V13.01,2013-06-16 16:18:00,
2013-06-16 12:23:00,86.8,75.8,30.07,SSE,162,6.0,6.0,70,0.00,,---,0.00,VWS V13.01,2013-06-16 16:23:00,
2013-06-16 12:28:00,87.0,74.8,30.07,ESE,122,3.3,4.3,67,0.00,,---,0.00,VWS V13.01,2013-06-16 16:28:00,
2013-06-16 12:33:00,87.4,75.6,30.07,SE,138,9.7,11.0,68,0.00,,---,0.00,VWS V13.01,2013-06-16 16:33:00,
2013-06-16 12:38:00,87.4,75.0,30.07,ESE,112,6.0,12.8,67,0.00,,---,0.00,VWS V13.01,2013-06-16 16:38:00,
2013-06-16 12:43:00,87.4,75.8,30.07,ESE,114,0.6,5.0,69,0.00,,---,0.00,VWS V13.01,2013-06-16 16:43:00,
2013-06-16 12:49:00,87.1,75.0,30.07,ESE,117,11.5,11.8,67,0.00,,---,0.00,VWS V13.01,2013-06-16 16:49:00,
2013-06-16 12:54:00,87.4,76.1,30.06,SSE,162,4.0,11.7,69,0.00,,---,0.00,VWS V13.01,2013-06-16 16:54:00,
2013-06-16 12:59:00,87.5,75.0,30.06,East,96,4.4,8.7,67,0.00,,---,0.00,VWS V13.01,2013-06-16 16:59:00,
2013-06-16 13:04:00,87.9,75.3,30.06,SE,132,5.1,9.7,66,0.00,,---,0.00,VWS V13.01,2013-06-16 17:04:00,
2013-06-16 13:09:00,88.2,74.8,30.06,South,179,6.2,12.4,65,0.00,,---,0.00,VWS V13.01,2013-06-16 17:09:00,
2013-06-16 13:14:00,87.9,76.2,30.05,ESE,115,6.0,6.0,68,0.00,,---,0.00,VWS V13.01,2013-06-16 17:14:00,
2013-06-16 13:20:00,87.7,76.0,30.05,ESE,120,6.8,8.0,68,0.00,,---,0.00,VWS V13.01,2013-06-16 17:20:00,
2013-06-16 13:25:00,87.6,75.2,30.05,ESE,111,10.5,11.3,67,0.00,,---,0.00,VWS V13.01,2013-06-16 17:25:00,
2013-06-16 13:30:00,87.8,76.2,30.05,ENE,58,4.6,8.1,68,0.00,,---,0.00,VWS V13.01,2013-06-16 17:30:00,
2013-06-16 13:35:00,87.6,75.5,30.05,SSE,162,9.8,11.2,68,0.00,,---,0.00,VWS V13.01,2013-06-16 17:35:00,
2013-06-16 13:40:00,87.5,75.7,30.06,East,93,8.3,8.9,68,0.00,,---,0.00,VWS V13.01,2013-06-16 17:40:00,
2013-06-16 13:45:00,87.1,75.9,30.05,ESE,117,8.6,10.7,69,0.00,,---,0.00,VWS V13.01,2013-06-16 17:45:00,
2013-06-16 13:50:00,87.2,75.9,30.05,ENE,77,9.9,9.9,69,0.00,,---,0.00,VWS V13.01,2013-06-16 17:50:00,
2013-06-16 13:55:00,87.4,76.1,30.05,SSE,162,8.5,8.7,69,0.00,,---,0.00,VWS V13.01,2013-06-16 17:55:00,
2013-06-16 14:00:00,87.3,76.3,30.05,East,97,4.9,6.2,70,0.00,,---,0.00,VWS V13.01,2013-06-16 18:00:00,
2013-06-16 14:05:00,87.1,76.0,30.05,ESE,105,4.8,7.0,70,0.00,,---,0.00,VWS V13.01,2013-06-16 18:05:00,
2013-06-16 14:10:00,87.5,76.6,30.05,ESE,103,5.5,5.5,70,0.00,,---,0.00,VWS V13.01,2013-06-16 18:10:00,
2013-06-16 14:15:00,87.1,75.2,30.05,SSE,155,4.7,8.7,68,0.00,,---,0.00,VWS V13.01,2013-06-16 18:15:00,
2013-06-16 14:20:00,87.1,74.4,30.05,South,177,6.2,9.3,66,0.00,,---,0.00,VWS V13.01,2013-06-16 18:20:00,
2013-06-16 14:25:00,87.7,74.8,30.04,SE,145,5.4,7.8,66,0.00,,---,0.00,VWS V13.01,2013-06-16 18:25:00,
2013-06-16 14:31:00,87.7,74.9,30.04,SE,139,7.5,13.6,66,0.00,,---,0.00,VWS V13.01,2013-06-16 18:31:00,
2013-06-16 14:36:00,87.7,73.9,30.04,SE,127,5.9,9.1,64,0.00,,---,0.00,VWS V13.01,2013-06-16 18:36:00,
2013-06-16 14:41:00,88.1,73.4,30.04,SE,124,6.6,6.9,62,0.00,,---,0.00,VWS V13.01,2013-06-16 18:41:00,
2013-06-16 14:46:00,88.3,73.4,30.03,SE,127,8.1,9.3,62,0.00,,---,0.00,VWS V13.01,2013-06-16 18:46:00,
2013-06-16 14:51:00,88.0,72.9,30.03,SE,139,7.0,7.0,61,0.00,,---,0.00,VWS V13.01,2013-06-16 18:51:00,
2013-06-16 14:56:00,88.4,74.2,30.03,SE,138,4.0,8.9,63,0.00,,---,0.00,VWS V13.01,2013-06-16 18:56:00,
2013-06-16 15:01:00,88.8,73.9,30.03,SE,124,5.7,8.0,62,0.00,,---,0.00,VWS V13.01,2013-06-16 19:01:00,
2013-06-16 15:06:00,88.8,72.9,30.03,SE,141,5.6,5.6,60,0.00,,---,0.00,VWS V13.01,2013-06-16 19:06:00,
2013-06-16 15:11:00,89.3,72.8,30.03,SSE,148,2.6,2.6,58,0.00,,---,0.00,VWS V13.01,2013-06-16 19:11:00,
2013-06-16 15:16:00,89.4,72.3,30.03,SE,131,4.0,4.7,57,0.00,,---,0.00,VWS V13.01,2013-06-16 19:16:00,
2013-06-16 15:21:00,89.6,73.9,30.02,SE,127,1.2,1.6,60,0.00,,---,0.00,VWS V13.01,2013-06-16 19:21:00,
2013-06-16 15:26:00,89.7,73.8,30.02,East,86,3.2,6.8,60,0.00,,---,0.00,VWS V13.01,2013-06-16 19:26:00,
2013-06-16 15:32:00,90.0,73.0,30.02,East,101,2.9,7.0,58,0.00,,---,0.00,VWS V13.01,2013-06-16 19:32:00,
2013-06-16 15:37:00,89.8,73.6,30.02,ESE,121,5.9,6.2,59,0.00,,---,0.00,VWS V13.01,2013-06-16 19:37:00,
2013-06-16 15:42:00,89.4,73.4,30.02,SSE,163,4.4,6.5,59,0.00,,---,0.00,VWS V13.01,2013-06-16 19:42:00,
2013-06-16 15:47:00,89.8,74.3,30.02,SE,127,1.8,3.0,60,0.00,,---,0.00,VWS V13.01,2013-06-16 19:47:00,
2013-06-16 15:52:00,89.3,74.1,30.02,SSE,162,3.3,6.2,61,0.00,,---,0.00,VWS V13.01,2013-06-16 19:52:00,
2013-06-16 15:57:00,89.1,74.8,30.02,SSW,211,2.4,6.2,63,0.00,,---,0.00,VWS V13.01,2013-06-16 19:57:00,
2013-06-16 16:02:00,88.3,73.4,30.02,ESE,121,4.2,7.5,62,0.00,,---,0.00,VWS V13.01,2013-06-16 20:02:00,
2013-06-16 16:08:00,88.6,74.4,30.01,SSE,162,4.6,9.4,63,0.00,,---,0.00,VWS V13.01,2013-06-16 20:08:00,
2013-06-16 16:13:00,88.4,74.9,30.01,SE,127,7.0,8.5,64,0.00,,---,0.00,VWS V13.01,2013-06-16 20:13:00,
2013-06-16 16:19:00,88.0,75.1,30.01,ESE,110,5.5,8.2,66,0.00,,---,0.00,VWS V13.01,2013-06-16 20:19:00,
2013-06-16 16:24:00,87.9,76.2,30.01,SSE,153,2.9,9.4,68,0.00,,---,0.00,VWS V13.01,2013-06-16 20:24:00,
2013-06-16 16:29:00,87.3,75.8,30.00,SW,217,9.4,9.4,69,0.00,,---,0.00,VWS V13.01,2013-06-16 20:29:00,
2013-06-16 16:36:00,87.2,76.1,30.01,SE,125,2.9,5.4,70,0.00,,---,0.00,VWS V13.01,2013-06-16 20:36:00,
2013-06-16 16:41:00,87.5,75.6,30.01,SSE,167,1.4,2.7,68,0.00,,---,0.00,VWS V13.01,2013-06-16 20:41:00,
2013-06-16 16:46:00,88.4,75.3,30.00,SSE,149,3.1,8.6,65,0.00,,---,0.00,VWS V13.01,2013-06-16 20:46:00,
2013-06-16 16:51:00,88.3,75.3,30.00,SE,132,1.7,3.5,66,0.00,,---,0.00,VWS V13.01,2013-06-16 20:51:00,
2013-06-16 16:57:00,88.4,74.4,30.00,SE,142,2.7,8.4,64,0.00,,---,0.00,VWS V13.01,2013-06-16 20:57:00,
2013-06-16 17:02:00,88.2,74.6,30.00,East,90,2.1,6.6,64,0.00,,---,0.00,VWS V13.01,2013-06-16 21:02:00,
2013-06-16 17:07:00,88.2,73.8,30.00,SSW,200,3.4,13.3,62,0.00,,---,0.00,VWS V13.01,2013-06-16 21:07:00,
2013-06-16 17:12:00,88.6,74.6,30.00,SSE,149,1.1,4.1,63,0.00,,---,0.00,VWS V13.01,2013-06-16 21:12:00,
2013-06-16 17:17:00,88.6,74.1,30.00,SSE,162,7.5,8.9,62,0.00,,---,0.00,VWS V13.01,2013-06-16 21:17:00,
2013-06-16 17:22:00,87.9,74.0,30.00,SSE,166,6.8,7.7,64,0.00,,---,0.00,VWS V13.01,2013-06-16 21:22:00,
2013-06-16 17:27:00,87.9,74.2,30.00,East,96,2.2,3.0,64,0.00,,---,0.00,VWS V13.01,2013-06-16 21:27:00,
2013-06-16 17:32:00,88.0,74.6,29.99,SSE,163,3.5,3.5,65,0.00,,---,0.00,VWS V13.01,2013-06-16 21:32:00,
2013-06-16 17:37:00,88.0,74.3,29.99,SSW,193,2.7,4.1,64,0.00,,---,0.00,VWS V13.01,2013-06-16 21:37:00,
2013-06-16 17:42:00,87.7,74.0,29.99,SE,142,2.6,4.0,64,0.00,,---,0.00,VWS V13.01,2013-06-16 21:42:00,
2013-06-16 17:47:00,87.2,74.5,29.99,ENE,70,2.3,4.5,66,0.00,,---,0.00,VWS V13.01,2013-06-16 21:47:00,
2013-06-16 17:52:00,87.3,74.7,29.99,SSE,167,4.1,7.5,66,0.00,,---,0.00,VWS V13.01,2013-06-16 21:52:00,
2013-06-16 17:57:00,87.5,74.8,29.99,SE,134,2.7,5.0,66,0.00,,---,0.00,VWS V13.01,2013-06-16 21:57:00,
2013-06-16 18:03:00,87.4,74.0,29.99,South,169,7.4,8.9,65,0.00,,---,0.00,VWS V13.01,2013-06-16 22:03:00,
2013-06-16 18:08:00,87.7,74.2,29.99,SSE,162,3.0,10.1,64,0.00,,---,0.00,VWS V13.01,2013-06-16 22:08:00,
2013-06-16 18:13:00,87.8,74.2,29.99,SSE,162,2.7,8.8,64,0.00,,---,0.00,VWS V13.01,2013-06-16 22:13:00,
2013-06-16 18:18:00,87.7,74.5,29.99,East,91,3.0,3.5,65,0.00,,---,0.00,VWS V13.01,2013-06-16 22:18:00,
2013-06-16 18:23:00,87.5,74.3,29.99,ESE,110,0.9,4.3,65,0.00,,---,0.00,VWS V13.01,2013-06-16 22:23:00,
2013-06-16 18:28:00,87.5,74.2,29.99,SE,145,6.2,8.9,65,0.00,,---,0.00,VWS V13.01,2013-06-16 22:28:00,
2013-06-16 18:33:00,87.5,75.1,29.99,SSE,150,2.9,6.2,67,0.00,,---,0.00,VWS V13.01,2013-06-16 22:33:00,
2013-06-16 18:38:00,87.7,74.7,29.99,SSW,201,6.2,8.1,65,0.00,,---,0.00,VWS V13.01,2013-06-16 22:38:00,
2013-06-16 18:43:00,87.3,75.0,30.00,ESE,114,4.7,4.8,67,0.00,,---,0.00,VWS V13.01,2013-06-16 22:43:00,
2013-06-16 18:48:00,87.2,75.5,30.00,ESE,110,1.1,1.9,68,0.00,,---,0.00,VWS V13.01,2013-06-16 22:48:00,
2013-06-16 18:53:00,87.1,75.4,30.00,SSE,156,2.1,2.5,68,0.00,,---,0.00,VWS V13.01,2013-06-16 22:53:00,
2013-06-16 18:58:00,86.9,74.8,30.01,SSE,159,7.0,7.8,67,0.00,,---,0.00,VWS V13.01,2013-06-16 22:58:00,
2013-06-16 19:03:00,86.5,75.0,30.01,SSW,200,4.5,7.3,69,0.00,,---,0.00,VWS V13.01,2013-06-16 23:03:00,
2013-06-16 19:08:00,86.5,75.9,30.01,SE,138,2.9,4.8,71,0.00,,---,0.00,VWS V13.01,2013-06-16 23:08:00,
2013-06-16 19:13:00,86.5,75.8,30.00,NNE,13,2.1,5.9,71,0.00,,---,0.00,VWS V13.01,2013-06-16 23:13:00,
2013-06-16 19:18:00,86.0,74.9,30.00,ESE,118,3.1,7.3,70,0.00,,---,0.00,VWS V13.01,2013-06-16 23:18:00,
2013-06-16 19:23:00,86.2,75.5,30.01,SE,125,4.0,8.5,70,0.00,,---,0.00,VWS V13.01,2013-06-16 23:23:00,
2013-06-16 19:28:00,85.7,74.7,30.00,South,174,5.7,7.3,70,0.00,,---,0.00,VWS V13.01,2013-06-16 23:28:00,
2013-06-16 19:33:00,85.3,74.5,30.01,ESE,107,4.0,5.3,70,0.00,,---,0.00,VWS V13.01,2013-06-16 23:33:00,
2013-06-16 19:38:00,85.4,74.8,30.01,SSE,149,3.2,5.6,71,0.00,,---,0.00,VWS V13.01,2013-06-16 23:38:00,
2013-06-16 19:43:00,85.2,74.5,30.01,SW,215,2.2,8.3,70,0.00,,---,0.00,VWS V13.01,2013-06-16 23:43:00,
2013-06-16 19:48:00,85.0,74.5,30.01,SSE,149,4.7,6.8,71,0.00,,---,0.00,VWS V13.01,2013-06-16 23:48:00,
2013-06-16 19:53:00,84.6,74.5,30.01,SW,217,6.0,9.9,72,0.00,,---,0.00,VWS V13.01,2013-06-16 23:53:00,
2013-06-16 19:58:00,84.6,74.8,30.01,ESE,121,1.3,2.6,72,0.00,,---,0.00,VWS V13.01,2013-06-16 23:58:00,
2013-06-16 20:03:00,84.5,74.9,30.02,SE,127,1.6,2.4,73,0.00,,---,0.00,VWS V13.01,2013-06-17 00:03:00,
2013-06-16 20:09:00,84.4,74.8,30.02,ESE,118,2.1,2.7,73,0.00,,---,0.00,VWS V13.01,2013-06-17 00:09:00,
2013-06-16 20:14:00,84.3,74.8,30.02,SSE,162,5.3,6.6,73,0.00,,---,0.00,VWS V13.01,2013-06-17 00:14:00,
2013-06-16 20:19:00,84.1,75.0,30.02,ESE,107,0.0,0.9,74,0.00,,---,0.00,VWS V13.01,2013-06-17 00:19:00,
2013-06-16 20:24:00,84.1,75.1,30.02,SE,142,3.5,5.4,74,0.00,,---,0.00,VWS V13.01,2013-06-17 00:24:00,
2013-06-16 20:29:00,84.1,74.6,30.03,ESE,121,3.9,5.7,73,0.00,,---,0.00,VWS V13.01,2013-06-17 00:29:00,
2013-06-16 20:34:00,84.0,74.6,30.02,SSE,153,0.4,2.3,74,0.00,,---,0.00,VWS V13.01,2013-06-17 00:34:00,
2013-06-16 20:39:00,84.1,74.7,30.02,SE,132,2.7,2.7,73,0.00,,---,0.00,VWS V13.01,2013-06-17 00:39:00,
2013-06-16 20:44:00,84.2,75.0,30.03,SSE,165,2.0,3.4,74,0.00,,---,0.00,VWS V13.01,2013-06-17 00:44:00,
2013-06-16 20:49:00,83.9,74.8,30.03,South,173,1.2,2.5,74,0.00,,---,0.00,VWS V13.01,2013-06-17 00:49:00,
2013-06-16 20:54:00,84.0,75.2,30.03,ESE,122,1.3,2.2,75,0.00,,---,0.00,VWS V13.01,2013-06-17 00:54:00,
2013-06-16 20:59:00,84.0,75.3,30.03,SE,139,2.6,2.6,75,0.00,,---,0.00,VWS V13.01,2013-06-17 00:59:00,
2013-06-16 21:05:00,83.8,75.0,30.03,East,96,1.9,4.8,75,0.00,,---,0.00,VWS V13.01,2013-06-17 01:05:00,
2013-06-16 21:10:00,83.8,75.0,30.04,SSE,148,1.8,2.9,75,0.00,,---,0.00,VWS V13.01,2013-06-17 01:10:00,
2013-06-16 21:15:00,83.6,74.9,30.04,SSE,165,2.4,3.2,75,0.00,,---,0.00,VWS V13.01,2013-06-17 01:15:00,
2013-06-16 21:20:00,83.6,75.0,30.04,South,184,5.3,9.1,75,0.00,,---,0.00,VWS V13.01,2013-06-17 01:20:00,
2013-06-16 21:25:00,83.5,75.0,30.04,SSW,207,1.6,3.0,76,0.00,,---,0.00,VWS V13.01,2013-06-17 01:25:00,
2013-06-16 21:30:00,83.4,75.1,30.04,SE,129,4.7,4.7,76,0.00,,---,0.00,VWS V13.01,2013-06-17 01:30:00,
2013-06-16 21:35:00,83.5,75.1,30.04,SW,221,0.7,1.0,76,0.00,,---,0.00,VWS V13.01,2013-06-17 01:35:00,
2013-06-16 21:41:00,83.3,75.0,30.04,South,190,5.2,5.2,76,0.00,,---,0.00,VWS V13.01,2013-06-17 01:41:00,
2013-06-16 21:46:00,83.5,75.3,30.04,SSE,156,2.6,6.8,76,0.00,,---,0.00,VWS V13.01,2013-06-17 01:46:00,
2013-06-16 21:51:00,83.2,75.2,30.05,NE,34,1.4,5.0,77,0.00,,---,0.00,VWS V13.01,2013-06-17 01:51:00,
2013-06-16 21:56:00,83.4,75.4,30.05,South,177,5.3,6.5,77,0.00,,---,0.00,VWS V13.01,2013-06-17 01:56:00,
2013-06-16 22:01:00,83.1,75.2,30.05,SE,127,1.3,1.4,77,0.00,,---,0.00,VWS V13.01,2013-06-17 02:01:00,
2013-06-16 22:06:00,82.8,74.5,30.05,SSE,162,4.7,8.5,76,0.00,,---,0.00,VWS V13.01,2013-06-17 02:06:00,
2013-06-16 22:11:00,83.0,74.7,30.05,SSE,162,7.4,9.9,76,0.00,,---,0.00,VWS V13.01,2013-06-17 02:11:00,
2013-06-16 22:16:00,82.8,74.5,30.05,SSE,162,6.3,8.3,76,0.00,,---,0.00,VWS V13.01,2013-06-17 02:16:00,
2013-06-16 22:21:00,82.9,74.7,30.05,South,174,1.3,4.3,76,0.00,,---,0.00,VWS V13.01,2013-06-17 02:21:00,
2013-06-16 22:27:00,83.0,74.9,30.05,SW,217,1.7,5.8,77,0.00,,---,0.00,VWS V13.01,2013-06-17 02:27:00,
2013-06-16 22:32:00,82.6,74.6,30.06,SE,131,5.5,7.7,77,0.00,,---,0.00,VWS V13.01,2013-06-17 02:32:00,
2013-06-16 22:37:00,82.7,74.7,30.06,South,188,7.4,7.4,77,0.00,,---,0.00,VWS V13.01,2013-06-17 02:37:00,
2013-06-16 22:42:00,82.8,74.7,30.07,East,96,0.9,1.2,77,0.00,,---,0.00,VWS V13.01,2013-06-17 02:42:00,
2013-06-16 22:47:00,82.7,74.4,30.07,South,174,7.3,7.3,76,0.00,,---,0.00,VWS V13.01,2013-06-17 02:47:00,
2013-06-16 22:52:00,82.9,74.5,30.07,SE,146,2.5,5.4,76,0.00,,---,0.00,VWS V13.01,2013-06-17 02:52:00,
2013-06-16 22:57:00,82.8,74.1,30.07,SE,129,0.7,1.6,75,0.00,,---,0.00,VWS V13.01,2013-06-17 02:57:00,
2013-06-16 23:02:00,82.8,73.5,30.07,West,264,2.2,4.5,74,0.00,,---,0.00,VWS V13.01,2013-06-17 03:02:00,
2013-06-16 23:07:00,83.0,73.3,30.08,SSE,163,1.7,7.3,73,0.00,,---,0.00,VWS V13.01,2013-06-17 03:07:00,
2013-06-16 23:12:00,82.8,73.0,30.08,SSE,167,2.9,3.4,72,0.00,,---,0.00,VWS V13.01,2013-06-17 03:12:00,
2013-06-16 23:17:00,82.9,73.0,30.08,South,177,2.7,3.7,72,0.00,,---,0.00,VWS V13.01,2013-06-17 03:17:00,
2013-06-16 23:22:00,83.1,73.1,30.08,South,170,1.8,3.7,72,0.00,,---,0.00,VWS V13.01,2013-06-17 03:22:00,
2013-06-16 23:27:00,83.0,73.1,30.08,ESE,117,2.5,7.6,72,0.00,,---,0.00,VWS V13.01,2013-06-17 03:27:00,
2013-06-16 23:32:00,83.1,73.2,30.08,SSW,193,4.1,4.1,72,0.00,,---,0.00,VWS V13.01,2013-06-17 03:32:00,
2013-06-16 23:37:00,82.9,72.9,30.08,SSE,167,4.7,7.7,72,0.00,,---,0.00,VWS V13.01,2013-06-17 03:37:00,
2013-06-16 23:42:00,83.0,72.8,30.08,ESE,104,0.8,4.2,71,0.00,,---,0.00,VWS V13.01,2013-06-17 03:42:00,
2013-06-16 23:47:00,83.1,72.8,30.07,SW,229,2.4,3.7,71,0.00,,---,0.00,VWS V13.01,2013-06-17 03:47:00,
2013-06-16 23:52:00,83.0,72.9,30.07,South,180,2.4,3.1,72,0.00,,---,0.00,VWS V13.01,2013-06-17 03:52:00,
2013-06-16 23:57:00,83.0,73.1,30.08,SE,129,0.6,1.8,72,0.00,,---,0.00,VWS V13.01,2013-06-17 03:57:00,